Time;durP1;ratioP1;P1;durP2;ratioP2;P2;SDS_P1;SDS_P2;PMS_P1;PMS_P2;Temp;Humidity;BMP_temperature;BMP_pressure;BME280_temperature;BME280_humidity;BME280_pressure;Samples;Min_cycle;Max_cycle;Signal;HPM_P1;HPM_P2
2023/08/14 00:02:22;;;;;;;5.93;2.22;;;;;;;16.41;100.00;101469.75;4975703;28;20613;-53
2023/08/14 00:04:50;;;;;;;5.45;2.50;;;;;;;16.45;100.00;101465.94;4976299;28;20305;-55
2023/08/14 00:07:16;;;;;;;4.28;2.17;;;;;;;16.51;100.00;101470.13;4974011;28;20198;-51
2023/08/14 00:09:41;;;;;;;6.15;2.13;;;;;;;16.52;100.00;101466.50;4982770;28;20176;-47
2023/08/14 00:12:07;;;;;;;5.75;2.60;;;;;;;16.50;100.00;101465.69;4972963;28;20225;-48
2023/08/14 00:14:33;;;;;;;5.32;2.33;;;;;;;16.50;100.00;101471.97;4977467;28;20177;-47
2023/08/14 00:16:58;;;;;;;3.45;2.38;;;;;;;16.52;100.00;101471.91;4979661;28;20656;-52
2023/08/14 00:19:24;;;;;;;5.38;2.40;;;;;;;16.51;100.00;101464.72;4979089;28;20242;-47
2023/08/14 00:21:49;;;;;;;6.38;2.33;;;;;;;16.53;100.00;101468.22;4978817;28;20240;-46
2023/08/14 00:24:15;;;;;;;4.35;2.40;;;;;;;16.52;100.00;101453.81;4959863;28;20218;-49
2023/08/14 00:26:40;;;;;;;5.95;2.65;;;;;;;16.56;100.00;101462.66;4981275;28;20205;-48
2023/08/14 00:29:06;;;;;;;5.05;2.17;;;;;;;16.53;100.00;101455.59;4976674;28;20198;-46
2023/08/14 00:31:31;;;;;;;8.45;2.50;;;;;;;16.56;100.00;101455.41;4957963;28;20185;-49
2023/08/14 00:33:57;;;;;;;4.57;2.25;;;;;;;16.59;100.00;101467.91;4979305;28;20273;-53
2023/08/14 00:36:23;;;;;;;5.45;2.58;;;;;;;16.60;100.00;101443.47;4976294;28;20182;-46
2023/08/14 00:38:48;;;;;;;3.83;2.03;;;;;;;16.68;100.00;101445.75;4974353;28;20568;-46
2023/08/14 00:41:14;;;;;;;5.63;2.17;;;;;;;16.66;100.00;101443.16;4976465;28;20181;-52
2023/08/14 00:43:39;;;;;;;9.77;2.72;;;;;;;16.61;100.00;101437.09;4977697;28;20194;-46
2023/08/14 00:46:06;;;;;;;3.75;2.17;;;;;;;16.62;100.00;101446.97;4980435;28;20268;-47
2023/08/14 00:48:32;;;;;;;4.00;2.30;;;;;;;16.66;100.00;101442.25;4973742;28;20206;-47
2023/08/14 00:50:58;;;;;;;4.82;2.88;;;;;;;16.68;100.00;101460.19;4971967;28;20170;-45
2023/08/14 00:53:27;;;;;;;4.43;2.30;;;;;;;16.65;100.00;101463.03;4963670;28;20664;-52
2023/08/14 00:55:54;;;;;;;4.13;2.28;;;;;;;16.64;100.00;101468.56;4976857;28;20173;-46
2023/08/14 00:58:20;;;;;;;3.97;2.33;;;;;;;16.70;100.00;101457.38;4956163;28;20232;-51
2023/08/14 01:00:46;;;;;;;2.70;2.20;;;;;;;16.66;100.00;101453.06;4962579;28;20216;-48
2023/08/14 01:03:12;;;;;;;3.75;2.10;;;;;;;16.65;100.00;101446.81;4959593;28;20206;-53
2023/08/14 01:05:38;;;;;;;8.68;2.30;;;;;;;16.65;100.00;101445.94;4955545;28;20198;-51
2023/08/14 01:08:04;;;;;;;3.95;2.50;;;;;;;16.62;100.00;101446.13;4961014;28;20259;-53
2023/08/14 01:10:56;;;;;;;3.85;1.83;;;;;;;16.71;100.00;101452.88;4963161;28;20616;-48
2023/08/14 01:13:40;;;;;;;2.63;2.20;;;;;;;16.63;100.00;101442.44;4977558;28;20236;-54
2023/08/14 01:16:20;;;;;;;5.22;2.53;;;;;;;16.60;100.00;101453.44;4972209;28;20170;-48
2023/08/14 01:18:47;;;;;;;2.58;2.03;;;;;;;16.52;100.00;101458.38;4971897;28;20550;-48
2023/08/14 01:21:15;;;;;;;4.03;1.98;;;;;;;16.57;100.00;101459.84;4974949;28;20949;-48
2023/08/14 01:23:59;;;;;;;5.38;2.00;;;;;;;16.61;100.00;101458.75;4977786;28;20253;-55
2023/08/14 01:26:25;;;;;;;3.65;2.03;;;;;;;16.61;100.00;101449.75;4957048;28;20341;-54
2023/08/14 01:28:51;;;;;;;4.05;2.03;;;;;;;16.53;100.00;101450.19;4979278;28;20677;-49
2023/08/14 01:31:18;;;;;;;2.88;1.65;;;;;;;16.59;100.00;101457.94;4980070;28;20645;-51
2023/08/14 01:33:43;;;;;;;3.85;1.80;;;;;;;16.50;100.00;101449.47;4978381;28;20193;-51
2023/08/14 01:36:27;;;;;;;2.85;2.03;;;;;;;16.48;100.00;101454.94;4959442;28;20186;-47
2023/08/14 01:38:59;;;;;;;3.72;1.73;;;;;;;16.56;100.00;101463.53;4976846;28;20314;-46
2023/08/14 01:41:37;;;;;;;1.70;1.60;;;;;;;16.59;100.00;101460.66;4974373;28;20193;-48
2023/08/14 01:44:07;;;;;;;1.90;1.23;;;;;;;16.61;100.00;101466.00;4976150;28;20190;-52
2023/08/14 01:46:34;;;;;;;4.60;1.95;;;;;;;16.37;100.00;101465.47;4971275;28;20198;-53
2023/08/14 01:49:03;;;;;;;4.95;2.25;;;;;;;16.40;100.00;101468.88;4976935;28;20202;-47
2023/08/14 01:51:29;;;;;;;3.58;1.83;;;;;;;16.38;100.00;101475.34;4962002;28;20216;-47
2023/08/14 01:53:56;;;;;;;2.75;1.65;;;;;;;16.37;100.00;101466.31;4962274;28;20216;-51
2023/08/14 01:56:22;;;;;;;3.15;2.08;;;;;;;16.22;100.00;101467.13;4977903;28;20201;-50
2023/08/14 01:58:47;;;;;;;3.22;2.10;;;;;;;16.08;100.00;101469.69;4949205;28;20235;-54
2023/08/14 02:01:13;;;;;;;3.80;1.83;;;;;;;16.13;100.00;101464.91;4980622;28;20173;-49
2023/08/14 02:03:40;;;;;;;2.42;1.80;;;;;;;16.18;100.00;101460.13;4981179;28;20182;-51
2023/08/14 02:06:05;;;;;;;3.90;1.90;;;;;;;16.12;100.00;101460.47;4979283;28;20199;-48
2023/08/14 02:08:31;;;;;;;3.25;1.95;;;;;;;15.95;100.00;101459.47;4976164;28;20205;-50
2023/08/14 02:10:56;;;;;;;3.30;1.70;;;;;;;16.00;100.00;101465.50;4962847;28;20655;-50
2023/08/14 02:13:22;;;;;;;2.05;1.85;;;;;;;16.00;100.00;101457.41;4964649;28;20231;-48
2023/08/14 02:15:48;;;;;;;2.67;1.80;;;;;;;15.97;100.00;101464.81;4973201;28;20597;-46
2023/08/14 02:18:14;;;;;;;4.65;2.30;;;;;;;15.74;100.00;101465.97;4974495;28;20228;-49
2023/08/14 02:20:49;;;;;;;4.07;2.00;;;;;;;15.63;100.00;101459.25;4967882;28;20197;-49
2023/08/14 02:23:15;;;;;;;2.90;2.00;;;;;;;15.56;100.00;101459.59;4974176;28;20256;-52
2023/08/14 02:25:41;;;;;;;2.63;1.83;;;;;;;15.61;100.00;101461.16;4958201;28;20617;-51
2023/08/14 02:28:08;;;;;;;4.93;2.45;;;;;;;15.48;100.00;101454.59;4973386;28;20611;-47
2023/08/14 02:30:38;;;;;;;4.13;1.80;;;;;;;15.53;100.00;101457.94;4961202;28;20584;-51
2023/08/14 02:33:05;;;;;;;4.25;2.10;;;;;;;15.38;100.00;101450.59;4977715;28;20335;-47
2023/08/14 02:35:30;;;;;;;4.90;2.40;;;;;;;15.21;100.00;101454.94;4974600;28;20261;-48
2023/08/14 02:37:56;;;;;;;2.78;2.25;;;;;;;15.13;100.00;101462.56;4959992;28;20212;-46
2023/08/14 02:40:21;;;;;;;4.95;2.38;;;;;;;15.09;100.00;101462.78;4974258;28;20203;-47
2023/08/14 02:42:47;;;;;;;3.88;2.40;;;;;;;15.06;100.00;101452.97;4978299;28;20244;-54
2023/08/14 02:45:12;;;;;;;6.53;2.33;;;;;;;15.06;100.00;101460.22;4976988;28;20240;-48
2023/08/14 02:47:38;;;;;;;2.63;2.13;;;;;;;15.11;100.00;101455.47;4960197;28;20189;-49
2023/08/14 02:50:04;;;;;;;4.32;2.60;;;;;;;15.12;100.00;101471.59;4981116;28;20551;-48
2023/08/14 02:52:30;;;;;;;2.70;2.10;;;;;;;15.23;100.00;101466.56;4977135;28;20169;-45
2023/08/14 02:54:55;;;;;;;6.35;2.58;;;;;;;15.25;100.00;101463.78;4954883;28;20180;-50
2023/08/14 02:57:21;;;;;;;4.47;2.33;;;;;;;15.27;100.00;101461.91;4983510;28;20185;-47
2023/08/14 02:59:48;;;;;;;2.47;1.90;;;;;;;15.38;100.00;101462.25;4973058;28;20203;-48
2023/08/14 03:02:13;;;;;;;3.53;1.77;;;;;;;15.35;100.00;101461.50;4978278;28;20216;-48
2023/08/14 03:04:39;;;;;;;3.15;2.40;;;;;;;15.19;100.00;101462.25;4964986;28;20666;-47
2023/08/14 03:07:04;;;;;;;3.58;2.20;;;;;;;15.25;100.00;101464.66;4966969;28;20206;-52
2023/08/14 03:09:30;;;;;;;6.95;2.53;;;;;;;15.22;100.00;101453.16;4964355;28;20237;-47
2023/08/14 03:11:55;;;;;;;2.85;2.00;;;;;;;15.24;100.00;101468.31;4979365;28;20169;-48
2023/08/14 03:14:21;;;;;;;3.50;2.17;;;;;;;15.26;100.00;101468.22;4958453;28;20237;-52
2023/08/14 03:16:46;;;;;;;6.53;2.22;;;;;;;15.15;100.00;101467.88;4975828;28;20256;-48
2023/08/14 03:19:12;;;;;;;5.65;2.28;;;;;;;15.08;100.00;101467.28;4961215;28;20285;-49
2023/08/14 03:21:37;;;;;;;2.78;1.77;;;;;;;15.14;100.00;101466.13;4977141;28;20204;-49
2023/08/14 03:24:03;;;;;;;2.17;1.67;;;;;;;15.16;100.00;101459.72;4979674;28;20236;-46
2023/08/14 03:26:29;;;;;;;4.55;2.20;;;;;;;14.93;100.00;101459.91;4978888;28;20202;-46
2023/08/14 03:28:55;;;;;;;4.72;2.25;;;;;;;14.87;100.00;101461.06;4972898;28;20202;-52
2023/08/14 03:31:21;;;;;;;5.93;2.47;;;;;;;14.82;100.00;101458.59;4975799;28;20543;-44
2023/08/14 03:33:47;;;;;;;5.47;2.67;;;;;;;14.80;100.00;101463.19;4970260;28;20655;-45
2023/08/14 03:36:13;;;;;;;6.68;2.60;;;;;;;14.77;100.00;101459.75;4985207;28;20174;-45
2023/08/14 03:38:39;;;;;;;2.28;2.08;;;;;;;14.77;100.00;101460.59;4976330;28;20216;-46
2023/08/14 03:41:05;;;;;;;2.95;2.33;;;;;;;14.89;100.00;101460.97;4974192;28;20210;-45
2023/08/14 03:43:31;;;;;;;3.05;2.30;;;;;;;14.87;100.00;101452.09;4975707;28;20185;-50
2023/08/14 03:45:57;;;;;;;3.38;2.67;;;;;;;14.76;100.00;101452.59;4978232;28;20558;-45
2023/08/14 03:48:22;;;;;;;3.20;2.20;;;;;;;14.81;100.00;101455.97;4976549;28;20524;-45
2023/08/14 03:50:48;;;;;;;3.70;1.90;;;;;;;14.81;100.00;101455.97;4980574;28;20170;-47
2023/08/14 03:53:14;;;;;;;3.97;2.10;;;;;;;14.69;100.00;101451.97;4977495;28;20174;-44
2023/08/14 03:55:39;;;;;;;2.80;2.03;;;;;;;14.70;100.00;101445.66;4982327;28;20201;-44
2023/08/14 03:58:05;;;;;;;4.63;2.60;;;;;;;14.58;100.00;101436.31;4975311;28;20198;-44
2023/08/14 04:00:31;;;;;;;2.35;2.15;;;;;;;14.54;100.00;101442.75;4974990;28;20178;-44
2023/08/14 04:02:57;;;;;;;4.32;2.63;;;;;;;14.42;100.00;101443.28;4967290;28;20181;-44
2023/08/14 04:05:23;;;;;;;3.53;2.28;;;;;;;14.53;100.00;101435.59;4974618;28;20272;-46
2023/08/14 04:07:48;;;;;;;5.55;2.63;;;;;;;14.45;100.00;101439.56;4961952;28;20209;-45
2023/08/14 04:10:13;;;;;;;8.40;2.70;;;;;;;14.41;100.00;101430.78;4971397;28;20649;-44
2023/08/14 04:12:39;;;;;;;3.35;2.70;;;;;;;14.37;100.00;101426.47;4977005;28;20186;-49
2023/08/14 04:15:17;;;;;;;3.20;2.47;;;;;;;14.31;100.00;101437.50;4978892;28;20637;-44
2023/08/14 04:17:44;;;;;;;5.97;3.03;;;;;;;14.39;100.00;101430.81;4955762;28;20268;-51
2023/08/14 04:20:10;;;;;;;4.28;2.40;;;;;;;14.47;100.00;101421.50;4981594;28;20601;-46
2023/08/14 04:22:36;;;;;;;4.03;2.67;;;;;;;14.42;100.00;101429.81;4973786;28;20181;-46
2023/08/14 04:25:02;;;;;;;5.65;2.92;;;;;;;14.42;100.00;101436.06;4972271;28;20241;-50
2023/08/14 04:27:27;;;;;;;3.90;2.72;;;;;;;14.31;100.00;101424.03;4976460;28;20197;-41
2023/08/14 04:29:53;;;;;;;3.67;2.50;;;;;;;14.36;100.00;101422.84;4973023;28;20265;-47
2023/08/14 04:32:19;;;;;;;6.07;2.78;;;;;;;14.33;100.00;101420.31;4974486;28;20181;-49
2023/08/14 04:34:45;;;;;;;4.05;2.63;;;;;;;14.40;100.00;101427.16;4956952;28;20180;-46
2023/08/14 04:37:11;;;;;;;5.93;2.92;;;;;;;14.47;100.00;101416.13;4975087;28;20708;-46
2023/08/14 04:39:37;;;;;;;4.80;2.55;;;;;;;14.57;100.00;101421.06;4961353;28;20192;-45
2023/08/14 04:42:03;;;;;;;4.07;3.15;;;;;;;14.65;100.00;101427.91;4954801;28;20202;-45
2023/08/14 04:44:29;;;;;;;5.38;3.00;;;;;;;14.69;100.00;101424.13;4952156;28;20186;-45
2023/08/14 04:46:54;;;;;;;3.35;3.03;;;;;;;14.78;100.00;101427.31;4943910;28;20225;-45
2023/08/14 04:49:21;;;;;;;5.47;3.35;;;;;;;14.94;100.00;101416.66;4969218;28;20213;-46
2023/08/14 04:51:47;;;;;;;4.28;3.00;;;;;;;15.27;100.00;101423.22;4960517;28;20397;-46
2023/08/14 04:54:12;;;;;;;4.57;2.67;;;;;;;15.49;100.00;101418.53;4956711;28;20797;-48
2023/08/14 04:56:38;;;;;;;5.43;3.10;;;;;;;15.50;100.00;101425.66;4968958;28;20185;-46
2023/08/14 04:59:04;;;;;;;3.60;2.83;;;;;;;15.70;100.00;101432.81;4959347;28;20193;-47
2023/08/14 05:01:29;;;;;;;4.78;2.85;;;;;;;15.96;100.00;101428.81;4973400;28;20281;-45
2023/08/14 05:03:57;;;;;;;4.20;2.60;;;;;;;16.00;100.00;101438.47;4954069;28;20178;-47
2023/08/14 05:06:23;;;;;;;6.18;3.25;;;;;;;16.15;100.00;101430.56;4970517;28;21429;-47
2023/08/14 05:08:49;;;;;;;4.53;2.80;;;;;;;16.40;100.00;101435.56;4969639;28;20190;-45
2023/08/14 05:11:14;;;;;;;7.30;2.78;;;;;;;16.41;100.00;101426.47;4973846;28;20628;-46
2023/08/14 05:13:44;;;;;;;5.85;2.88;;;;;;;16.43;100.00;101433.56;4969730;28;20602;-46
2023/08/14 05:16:10;;;;;;;7.07;3.05;;;;;;;16.34;100.00;101439.47;4972173;28;20182;-47
2023/08/14 05:18:37;;;;;;;6.10;2.70;;;;;;;16.48;100.00;101427.91;4957984;28;20205;-48
2023/08/14 05:21:03;;;;;;;3.05;2.50;;;;;;;16.62;100.00;101425.34;4973600;28;20205;-49
2023/08/14 05:23:28;;;;;;;4.18;2.67;;;;;;;16.79;100.00;101427.13;4968775;28;20269;-47
2023/08/14 05:25:54;;;;;;;4.30;2.40;;;;;;;16.86;100.00;101433.13;4972713;28;20197;-49
2023/08/14 05:28:19;;;;;;;6.43;2.70;;;;;;;16.93;100.00;101429.09;4968313;28;20197;-47
2023/08/14 05:30:45;;;;;;;5.18;2.53;;;;;;;17.03;100.00;101429.44;4971594;28;20224;-47
2023/08/14 05:33:12;;;;;;;8.13;2.83;;;;;;;17.03;100.00;101432.16;4969675;28;20236;-46
2023/08/14 05:35:38;;;;;;;5.82;2.70;;;;;;;17.14;100.00;101427.00;4975573;28;20276;-47
2023/08/14 05:38:04;;;;;;;4.25;2.40;;;;;;;17.37;100.00;101427.56;4968277;28;20288;-47
2023/08/14 05:40:29;;;;;;;8.20;2.80;;;;;;;17.47;100.00;101429.66;4968357;28;20679;-46
2023/08/14 05:43:06;;;;;;;6.13;2.70;;;;;;;17.47;100.00;101429.66;4974908;28;20607;-46
2023/08/14 05:45:33;;;;;;;4.18;2.20;;;;;;;17.60;100.00;101434.34;4970772;28;20292;-46
2023/08/14 05:48:01;;;;;;;7.28;2.20;;;;;;;17.70;100.00;101431.00;4969372;28;20202;-47
2023/08/14 05:50:27;;;;;;;4.95;2.08;;;;;;;17.82;100.00;101431.28;4970414;28;20222;-46
2023/08/14 05:52:59;;;;;;;5.82;2.33;;;;;;;17.87;100.00;101440.91;4971158;28;20204;-43
2023/08/14 05:55:25;;;;;;;5.13;2.20;;;;;;;17.91;100.00;101431.63;4975228;28;20174;-44
2023/08/14 05:57:51;;;;;;;4.22;2.20;;;;;;;18.14;100.00;101425.78;4970053;28;20684;-43
2023/08/14 06:00:18;;;;;;;5.95;2.10;;;;;;;18.31;100.00;101431.94;4970295;28;20197;-45
2023/08/14 06:02:45;;;;;;;6.10;2.30;;;;;;;18.50;100.00;101411.81;4973423;28;20182;-44
2023/08/14 06:05:11;;;;;;;5.60;2.72;;;;;;;18.56;100.00;101410.53;4968859;28;20189;-43
2023/08/14 06:07:37;;;;;;;3.20;2.13;;;;;;;18.67;100.00;101418.88;4971459;28;20206;-44
2023/08/14 06:10:04;;;;;;;4.55;1.95;;;;;;;19.16;100.00;101417.66;4974744;28;20519;-44
2023/08/14 06:12:30;;;;;;;5.68;2.28;;;;;;;19.70;100.00;101409.53;4957982;28;20225;-45
2023/08/14 06:14:56;;;;;;;6.60;2.30;;;;;;;19.03;100.00;101401.28;4956985;28;20687;-44
2023/08/14 06:17:21;;;;;;;6.60;2.10;;;;;;;18.38;100.00;101415.28;4972448;28;20182;-44
2023/08/14 06:19:47;;;;;;;5.60;2.13;;;;;;;18.26;100.00;101412.38;4976943;28;20193;-44
2023/08/14 06:22:12;;;;;;;5.45;2.33;;;;;;;18.70;100.00;101424.13;4971461;28;20209;-44
2023/08/14 06:24:38;;;;;;;6.55;2.55;;;;;;;19.43;100.00;101415.81;4973873;28;20232;-45
2023/08/14 06:27:03;;;;;;;4.72;2.20;;;;;;;19.89;100.00;101409.16;4961236;28;20260;-45
2023/08/14 06:29:29;;;;;;;5.15;2.50;;;;;;;20.11;99.82;101401.25;4967396;28;20202;-45
2023/08/14 06:31:54;;;;;;;3.65;2.10;;;;;;;20.37;96.99;101390.41;4970618;28;20192;-45
2023/08/14 06:34:20;;;;;;;4.03;2.40;;;;;;;20.46;93.21;101397.94;4972323;28;20671;-45
2023/08/14 06:36:45;;;;;;;7.38;2.55;;;;;;;20.44;91.51;101389.00;4970823;28;20236;-45
2023/08/14 06:39:10;;;;;;;5.93;2.40;;;;;;;20.81;89.37;101389.13;4975451;28;20600;-44
2023/08/14 06:41:36;;;;;;;7.18;2.25;;;;;;;20.97;87.93;101378.84;4976670;28;20220;-44
2023/08/14 06:44:08;;;;;;;3.97;2.30;;;;;;;21.05;86.84;101378.28;4976425;28;20644;-44
2023/08/14 06:46:34;;;;;;;6.75;2.65;;;;;;;21.56;85.96;101385.47;4956279;28;20229;-45
2023/08/14 06:48:59;;;;;;;6.68;2.45;;;;;;;21.50;84.36;101381.31;4972525;28;20945;-44
2023/08/14 06:51:24;;;;;;;5.88;2.50;;;;;;;21.83;83.32;101373.41;4977692;28;20216;-45
2023/08/14 06:53:50;;;;;;;3.55;2.13;;;;;;;22.03;81.48;101370.00;4975927;28;20216;-43
2023/08/14 06:56:15;;;;;;;4.88;2.67;;;;;;;21.96;79.86;101366.03;4955104;28;20181;-43
2023/08/14 06:58:41;;;;;;;6.43;2.58;;;;;;;21.81;79.19;101359.88;4979385;28;20199;-45
2023/08/14 07:01:07;;;;;;;4.30;2.17;;;;;;;22.27;79.38;101369.97;4980888;28;20186;-44
2023/08/14 07:03:33;;;;;;;9.05;2.80;;;;;;;22.03;78.51;101370.00;4978557;28;20180;-46
2023/08/14 07:05:58;;;;;;;5.50;2.03;;;;;;;22.63;77.75;101365.31;4977102;28;20695;-44
2023/08/14 07:08:24;;;;;;;6.03;2.30;;;;;;;22.62;77.03;101353.47;4976982;28;20209;-45
2023/08/14 07:10:50;;;;;;;5.75;2.35;;;;;;;22.85;75.93;101348.03;4983621;28;20659;-44
2023/08/14 07:13:15;;;;;;;6.68;2.10;;;;;;;23.18;74.05;101341.66;4973758;28;20643;-43
2023/08/14 07:15:41;;;;;;;7.20;2.58;;;;;;;22.92;73.77;101332.88;4977774;28;20240;-46
2023/08/14 07:18:07;;;;;;;5.30;2.22;;;;;;;22.98;73.66;101340.56;4962851;28;20198;-44
2023/08/14 07:20:33;;;;;;;7.32;2.50;;;;;;;22.83;73.78;101341.81;4976960;28;20251;-44
2023/08/14 07:22:59;;;;;;;3.72;2.25;;;;;;;22.72;74.07;101347.28;4978000;28;20609;-44
2023/08/14 07:25:25;;;;;;;6.25;2.08;;;;;;;23.02;73.61;101346.66;4977468;28;20186;-43
2023/08/14 07:27:50;;;;;;;8.38;2.33;;;;;;;23.01;73.55;101345.78;4975055;28;20197;-45
2023/08/14 07:30:16;;;;;;;8.45;2.45;;;;;;;23.21;73.24;101349.59;4979195;28;20209;-45
2023/08/14 07:32:41;;;;;;;8.80;2.50;;;;;;;22.82;72.65;101343.66;4960610;28;20189;-45
2023/08/14 07:35:07;;;;;;;5.55;2.10;;;;;;;22.91;73.41;101349.38;4960685;28;20185;-44
2023/08/14 07:37:32;;;;;;;5.35;2.10;;;;;;;22.72;73.25;101360.94;4975942;28;20560;-44
2023/08/14 07:39:59;;;;;;;6.60;2.58;;;;;;;22.93;72.68;101350.13;4975329;28;20185;-45
2023/08/14 07:42:24;;;;;;;3.35;1.75;;;;;;;22.78;72.56;101346.78;4979347;28;20268;-46
2023/08/14 07:44:51;;;;;;;5.53;1.83;;;;;;;22.91;72.82;101352.09;4973753;28;20323;-44
2023/08/14 07:47:16;;;;;;;6.10;2.10;;;;;;;23.00;72.55;101346.81;4971899;28;20207;-44
2023/08/14 07:49:42;;;;;;;5.85;2.00;;;;;;;23.00;72.68;101357.75;4975792;28;20565;-44
2023/08/14 07:52:09;;;;;;;4.90;2.10;;;;;;;22.94;71.92;101351.88;4981595;28;20257;-48
2023/08/14 07:54:34;;;;;;;5.13;2.45;;;;;;;22.95;72.52;101346.25;4979260;28;20232;-48
2023/08/14 07:57:00;;;;;;;4.28;2.05;;;;;;;23.07;72.97;101358.09;4975095;28;20181;-46
2023/08/14 07:59:25;;;;;;;11.55;2.38;;;;;;;22.74;73.30;101354.38;4976274;28;20587;-46
2023/08/14 08:01:51;;;;;;;6.30;2.30;;;;;;;22.67;72.73;101355.84;4976881;28;20178;-46
2023/08/14 08:04:16;;;;;;;8.68;2.22;;;;;;;22.59;73.96;101361.94;4973205;28;20194;-46
2023/08/14 08:06:41;;;;;;;3.95;2.20;;;;;;;22.25;74.87;101358.28;4978070;28;20257;-46
2023/08/14 08:09:07;;;;;;;10.15;2.40;;;;;;;22.30;75.55;101361.56;4975962;28;20193;-48
2023/08/14 08:11:33;;;;;;;6.07;2.20;;;;;;;22.37;76.30;101365.53;4973233;28;20182;-47
2023/08/14 08:13:59;;;;;;;7.35;2.20;;;;;;;22.63;75.88;101365.31;4977568;28;20201;-48
2023/08/14 08:16:25;;;;;;;5.97;2.72;;;;;;;22.92;74.72;101354.72;4978317;28;20699;-44
2023/08/14 08:18:50;;;;;;;4.82;2.35;;;;;;;22.94;73.13;101340.94;4974637;28;20192;-48
2023/08/14 08:21:16;;;;;;;5.95;2.30;;;;;;;23.07;72.00;101335.34;4956740;28;20679;-46
2023/08/14 08:23:42;;;;;;;2.95;1.80;;;;;;;23.00;72.21;101330.41;4976167;28;20181;-47
2023/08/14 08:26:07;;;;;;;8.45;2.53;;;;;;;22.75;72.62;101328.78;4978167;28;20661;-45
2023/08/14 08:28:33;;;;;;;3.30;1.92;;;;;;;23.01;73.01;101332.13;4972521;28;20363;-45
2023/08/14 08:30:58;;;;;;;3.95;2.20;;;;;;;23.19;73.02;101334.31;4959052;28;20305;-47
2023/08/14 08:33:23;;;;;;;6.47;2.20;;;;;;;23.02;72.37;101324.78;4978159;28;20185;-46
2023/08/14 08:35:49;;;;;;;8.05;2.35;;;;;;;23.02;72.14;101330.25;4975903;28;20716;-45
2023/08/14 08:38:15;;;;;;;5.60;2.10;;;;;;;23.39;72.00;101322.56;4976743;28;20280;-46
2023/08/14 08:40:46;;;;;;;5.88;2.17;;;;;;;23.20;71.75;101319.69;4976791;28;20212;-45
2023/08/14 08:43:13;;;;;;;4.55;2.17;;;;;;;23.50;72.30;101323.53;4977121;28;20201;-45
2023/08/14 08:45:45;;;;;;;5.85;2.17;;;;;;;24.03;71.64;101335.38;4978084;28;20225;-45
2023/08/14 08:48:13;;;;;;;5.72;2.58;;;;;;;23.30;70.94;101325.22;4977522;28;20739;-46
2023/08/14 08:50:39;;;;;;;7.32;2.42;;;;;;;23.22;70.70;101324.00;4958098;28;20197;-46
2023/08/14 08:53:04;;;;;;;4.68;2.20;;;;;;;23.59;70.64;101322.75;4975474;28;20194;-46
2023/08/14 08:55:30;;;;;;;6.18;2.33;;;;;;;23.71;69.48;101310.75;4976189;28;20176;-45
2023/08/14 08:57:57;;;;;;;6.20;2.47;;;;;;;23.81;68.18;101300.78;4976428;28;20291;-45
2023/08/14 09:00:23;;;;;;;6.63;2.08;;;;;;;24.19;69.05;101307.50;4976273;28;20204;-45
2023/08/14 09:02:48;;;;;;;5.97;2.35;;;;;;;23.73;67.99;101296.97;4977514;28;20221;-44
2023/08/14 09:05:14;;;;;;;5.65;2.40;;;;;;;23.98;68.07;101306.66;4974602;28;20197;-46
2023/08/14 09:07:39;;;;;;;6.68;2.10;;;;;;;24.10;68.36;101311.06;4964121;28;20555;-45
2023/08/14 09:10:05;;;;;;;6.88;2.42;;;;;;;24.15;66.80;101302.44;4975740;28;20189;-45
2023/08/14 09:12:31;;;;;;;5.20;2.35;;;;;;;24.52;67.49;101313.75;4977330;28;20646;-47
2023/08/14 09:15:06;;;;;;;5.88;2.20;;;;;;;24.78;66.68;101303.19;4978618;28;20237;-46
2023/08/14 09:17:32;;;;;;;4.80;2.15;;;;;;;24.81;65.43;101293.81;4974200;28;20247;-46
2023/08/14 09:19:57;;;;;;;5.78;2.20;;;;;;;25.03;65.79;101312.75;4970107;28;20264;-46
2023/08/14 09:22:26;;;;;;;5.65;2.20;;;;;;;24.68;67.26;101305.00;4977657;28;20340;-45
2023/08/14 09:24:51;;;;;;;4.72;2.42;;;;;;;24.37;66.46;101298.66;4974910;28;20204;-46
2023/08/14 09:27:16;;;;;;;5.90;2.38;;;;;;;24.37;67.35;101302.25;4973596;28;20288;-44
2023/08/14 09:29:42;;;;;;;3.85;2.30;;;;;;;24.26;67.22;101283.19;4977244;28;20193;-46
2023/08/14 09:32:10;;;;;;;3.95;2.10;;;;;;;24.29;67.76;101301.19;4976971;28;20599;-46
2023/08/14 09:34:37;;;;;;;6.60;2.45;;;;;;;24.72;66.74;101291.91;4976279;28;20592;-45
2023/08/14 09:37:04;;;;;;;5.10;2.22;;;;;;;24.82;67.06;101293.69;4976207;28;20489;-45
2023/08/14 09:39:31;;;;;;;6.30;2.40;;;;;;;24.91;64.73;101277.41;4976884;28;20196;-45
2023/08/14 09:41:59;;;;;;;5.38;2.63;;;;;;;24.09;66.30;101284.66;4975037;28;20544;-46
2023/08/14 09:44:26;;;;;;;7.25;2.42;;;;;;;23.76;67.28;101299.44;4974887;28;20193;-45
2023/08/14 09:46:54;;;;;;;8.10;2.42;;;;;;;23.95;67.95;101313.25;4979054;28;20219;-45
2023/08/14 09:49:20;;;;;;;8.50;2.65;;;;;;;23.95;68.87;101326.94;4976871;28;20200;-45
2023/08/14 09:51:54;;;;;;;5.63;2.20;;;;;;;24.04;67.48;101304.25;4980924;28;20231;-45
2023/08/14 09:54:19;;;;;;;4.82;2.60;;;;;;;24.29;67.27;101309.41;4955667;28;20554;-44
2023/08/14 09:56:46;;;;;;;5.95;2.30;;;;;;;24.43;68.12;101320.03;4974706;28;20182;-48
2023/08/14 09:59:11;;;;;;;4.55;2.38;;;;;;;24.74;66.55;101298.13;4973557;28;20255;-44
2023/08/14 10:01:39;;;;;;;7.72;2.50;;;;;;;25.22;65.09;101286.41;4975241;28;20185;-44
2023/08/14 10:04:06;;;;;;;3.67;1.95;;;;;;;25.36;65.03;101296.94;4975945;28;20178;-44
2023/08/14 10:06:33;;;;;;;3.92;2.30;;;;;;;24.99;63.98;101286.66;4973973;28;20205;-44
2023/08/14 10:08:59;;;;;;;5.90;1.95;;;;;;;25.35;63.82;101280.66;4957821;28;20275;-45
2023/08/14 10:11:27;;;;;;;8.68;2.35;;;;;;;25.32;63.13;101272.69;4975835;28;20181;-45
2023/08/14 10:14:00;;;;;;;4.75;2.00;;;;;;;25.52;62.79;101268.06;4975181;28;20276;-45
2023/08/14 10:16:35;;;;;;;5.45;2.40;;;;;;;24.90;62.78;101265.53;4970430;28;20192;-46
2023/08/14 10:19:04;;;;;;;8.70;2.45;;;;;;;24.73;63.13;101261.63;4971331;28;20211;-43
2023/08/14 10:21:32;;;;;;;5.60;2.10;;;;;;;24.78;64.06;101280.41;4977877;28;20295;-44
2023/08/14 10:24:02;;;;;;;4.25;2.22;;;;;;;24.92;64.07;101282.72;4973901;28;20196;-44
2023/08/14 10:26:28;;;;;;;5.93;2.35;;;;;;;24.93;64.51;101286.34;4971839;28;20321;-45
2023/08/14 10:28:56;;;;;;;5.75;2.22;;;;;;;24.99;64.30;101275.69;4956786;28;20255;-43
2023/08/14 10:31:22;;;;;;;7.32;2.30;;;;;;;25.07;63.26;101269.47;4976529;28;20197;-46
2023/08/14 10:33:48;;;;;;;3.72;2.08;;;;;;;24.94;63.81;101268.88;4974546;28;20194;-46
2023/08/14 10:36:19;;;;;;;6.60;2.20;;;;;;;25.33;63.52;101280.78;4977189;28;20268;-43
2023/08/14 10:38:50;;;;;;;7.85;2.58;;;;;;;24.94;63.73;101272.47;4971037;28;20632;-43
2023/08/14 10:41:17;;;;;;;5.03;2.17;;;;;;;24.87;63.46;101268.59;4973631;28;20547;-45
2023/08/14 10:43:46;;;;;;;6.25;2.58;;;;;;;25.13;64.36;101271.66;4975506;28;20577;-42
2023/08/14 10:46:15;;;;;;;6.00;2.30;;;;;;;25.05;62.32;101258.63;4970576;28;20301;-46
2023/08/14 10:48:42;;;;;;;5.07;2.03;;;;;;;25.16;61.88;101245.81;4977111;28;21093;-45
2023/08/14 10:51:09;;;;;;;3.40;1.73;;;;;;;25.28;60.03;101229.13;4972418;28;20625;-46
2023/08/14 10:53:35;;;;;;;5.05;1.85;;;;;;;25.14;58.97;101218.53;4974278;28;20288;-43
2023/08/14 10:56:01;;;;;;;4.60;2.15;;;;;;;25.72;59.82;101228.63;4975338;28;20565;-45
2023/08/14 10:58:35;;;;;;;3.22;1.73;;;;;;;25.87;58.59;101207.94;4968858;28;20292;-47
2023/08/14 11:01:07;;;;;;;4.70;2.13;;;;;;;24.98;58.72;101213.63;4974716;28;20272;-45
2023/08/14 11:03:34;;;;;;;5.32;1.70;;;;;;;24.76;59.06;101211.16;4970481;28;20189;-43
2023/08/14 11:06:00;;;;;;;7.25;2.28;;;;;;;25.04;59.65;101215.78;4953286;28;20673;-45
2023/08/14 11:08:29;;;;;;;5.80;2.25;;;;;;;24.90;60.07;101220.81;4974247;28;20233;-45
2023/08/14 11:10:56;;;;;;;6.55;2.25;;;;;;;24.40;60.39;101228.06;4973206;28;20208;-44
2023/08/14 11:13:22;;;;;;;6.43;2.40;;;;;;;24.56;59.95;101216.59;4972671;28;20186;-46
2023/08/14 11:15:48;;;;;;;4.72;2.03;;;;;;;24.57;58.47;101196.38;4968123;28;20256;-44
2023/08/14 11:18:13;;;;;;;5.20;2.03;;;;;;;24.90;58.96;101196.16;4972423;28;20288;-43
2023/08/14 11:20:45;;;;;;;7.47;2.20;;;;;;;24.82;57.39;101178.56;4975311;28;20251;-46